Time;durP1;ratioP1;P1;durP2;ratioP2;P2;SDS_P1;SDS_P2;PMS_P1;PMS_P2;Temp;Humidity;BMP_temperature;BMP_pressure;BME280_temperature;BME280_humidity;BME280_pressure;Samples;Min_cycle;Max_cycle;Signal;HPM_P1;HPM_P2
2022/10/29 00:01:36;;;;;;;;;;;14.90;99.90;;;;;;5065627;28;19931;-76
2022/10/29 00:04:02;;;;;;;;;;;14.90;99.90;;;;;;5064879;28;19909;-76
2022/10/29 00:06:27;;;;;;;;;;;14.90;99.90;;;;;;5065321;28;19915;-76
2022/10/29 00:08:53;;;;;;;;;;;14.90;99.90;;;;;;5064875;28;19915;-76
2022/10/29 00:11:19;;;;;;;;;;;14.90;99.90;;;;;;5065375;28;19909;-76
2022/10/29 00:13:46;;;;;;;;;;;14.80;99.90;;;;;;5064402;28;19917;-76
2022/10/29 00:16:13;;;;;;;;;;;14.80;99.90;;;;;;5065223;28;20196;-76
2022/10/29 00:18:39;;;;;;;;;;;14.80;99.90;;;;;;5064223;28;19954;-76
2022/10/29 00:21:06;;;;;;;;;;;14.80;99.90;;;;;;5065245;28;19917;-76
2022/10/29 00:23:32;;;;;;;;;;;14.70;99.90;;;;;;5063909;28;19913;-76
2022/10/29 00:26:01;;;;;;;;;;;14.70;99.90;;;;;;5063911;28;19958;-76
2022/10/29 00:28:29;;;;;;;;;;;14.70;99.90;;;;;;5058930;28;19916;-76
2022/10/29 00:30:55;;;;;;;;;;;14.70;99.90;;;;;;5059706;28;19990;-77
2022/10/29 00:33:21;;;;;;;;;;;14.60;99.90;;;;;;5056749;28;19912;-77
2022/10/29 00:36:02;;;;;;;;;;;14.60;99.90;;;;;;5064853;28;19909;-76
2022/10/29 00:38:29;;;;;;;;;;;14.50;99.90;;;;;;5063226;28;20203;-76
2022/10/29 00:40:55;;;;;;;;;;;14.50;99.90;;;;;;5063885;28;19916;-76
2022/10/29 00:43:21;;;;;;;;;;;14.50;99.90;;;;;;5064934;28;19943;-76
2022/10/29 00:45:53;;;;;;;;;;;14.50;99.90;;;;;;5063738;28;19913;-76
2022/10/29 00:48:19;;;;;;;;;;;14.50;99.90;;;;;;5063592;28;19963;-76
2022/10/29 00:50:45;;;;;;;;;;;14.40;99.90;;;;;;5064575;28;20030;-76
2022/10/29 00:53:10;;;;;;;;;;;14.50;99.90;;;;;;5064637;28;19912;-76
2022/10/29 00:55:36;;;;;;;;;;;14.40;99.90;;;;;;5063579;28;19913;-76
2022/10/29 00:58:01;;;;;;;;;;;14.40;99.90;;;;;;5063261;28;19916;-75
2022/10/29 01:00:27;;;;;;;;;;;14.40;99.90;;;;;;5063468;28;19916;-76
2022/10/29 01:02:53;;;;;;;;;;;14.40;99.90;;;;;;5063568;28;19912;-76
2022/10/29 01:05:19;;;;;;;;;;;14.40;99.90;;;;;;5064174;28;19920;-76
2022/10/29 01:07:45;;;;;;;;;;;14.40;99.90;;;;;;5063039;28;20254;-76
2022/10/29 01:10:11;;;;;;;;;;;14.30;99.90;;;;;;5064413;28;19909;-76
2022/10/29 01:13:06;;;;;;;;;;;14.30;99.90;;;;;;5064413;28;19944;-76
2022/10/29 01:15:47;;;;;;;;;;;14.30;99.90;;;;;;5063329;28;19919;-76
2022/10/29 01:18:18;;;;;;;;;;;14.30;99.90;;;;;;5062909;28;20092;-76
2022/10/29 01:20:44;;;;;;;;;;;14.30;99.90;;;;;;5062850;28;19909;-76
2022/10/29 01:23:37;;;;;;;;;;;14.30;99.90;;;;;;5064358;28;20007;-75
2022/10/29 01:26:34;;;;;;;;;;;14.30;99.90;;;;;;5063960;28;19908;-76
2022/10/29 01:29:04;;;;;;;;;;;14.30;99.90;;;;;;5062971;28;19924;-75
2022/10/29 01:31:34;;;;;;;;;;;14.20;99.90;;;;;;5062844;28;19924;-76
2022/10/29 01:34:10;;;;;;;;;;;14.20;99.90;;;;;;5045926;28;19952;-76
2022/10/29 01:36:59;;;;;;;;;;;14.20;99.90;;;;;;5062385;28;19919;-76
2022/10/29 01:39:33;;;;;;;;;;;14.20;99.90;;;;;;5062804;28;19913;-76
2022/10/29 01:42:30;;;;;;;;;;;14.20;99.90;;;;;;5062796;28;19979;-76
2022/10/29 01:45:17;;;;;;;;;;;14.20;99.90;;;;;;5062771;28;19909;-76
2022/10/29 01:47:46;;;;;;;;;;;14.10;99.90;;;;;;5063396;28;19984;-76
2022/10/29 01:50:13;;;;;;;;;;;14.10;99.90;;;;;;5061748;28;19974;-76
2022/10/29 01:52:39;;;;;;;;;;;14.10;99.90;;;;;;5062262;28;20208;-76
2022/10/29 01:55:05;;;;;;;;;;;14.10;99.90;;;;;;5062455;28;19908;-76
2022/10/29 01:57:31;;;;;;;;;;;14.00;99.90;;;;;;5063126;28;19908;-76
2022/10/29 02:00:27;;;;;;;;;;;14.00;99.90;;;;;;5063538;28;20019;-76
2022/10/29 02:03:23;;;;;;;;;;;14.00;99.90;;;;;;5046560;28;19913;-76
2022/10/29 02:06:00;;;;;;;;;;;13.90;99.90;;;;;;5046452;28;19984;-76
2022/10/29 02:08:44;;;;;;;;;;;13.90;99.90;;;;;;5042424;28;19916;-76
2022/10/29 02:11:23;;;;;;;;;;;13.80;99.90;;;;;;5043432;28;19916;-76
2022/10/29 02:13:58;;;;;;;;;;;13.80;99.90;;;;;;5042192;28;19920;-76
2022/10/29 02:16:24;;;;;;;;;;;13.70;99.90;;;;;;5041812;28;19915;-76
2022/10/29 02:18:50;;;;;;;;;;;13.70;99.90;;;;;;5042065;28;19937;-76
2022/10/29 02:21:16;;;;;;;;;;;13.70;99.90;;;;;;5041852;28;19915;-76
2022/10/29 02:23:42;;;;;;;;;;;13.70;99.90;;;;;;5042009;28;19924;-76
2022/10/29 02:26:08;;;;;;;;;;;13.60;99.90;;;;;;5041780;28;19909;-76
2022/10/29 02:28:33;;;;;;;;;;;13.60;99.90;;;;;;5043040;28;19913;-75
2022/10/29 02:30:59;;;;;;;;;;;13.60;99.90;;;;;;5042964;28;19909;-76
2022/10/29 02:33:25;;;;;;;;;;;13.50;99.90;;;;;;5044600;28;19919;-76
2022/10/29 02:35:50;;;;;;;;;;;13.40;99.90;;;;;;5062694;28;20269;-76
2022/10/29 02:38:16;;;;;;;;;;;13.40;99.90;;;;;;5062380;28;19936;-76
2022/10/29 02:40:42;;;;;;;;;;;13.40;99.90;;;;;;5062809;28;19952;-76
2022/10/29 02:43:07;;;;;;;;;;;13.30;99.90;;;;;;5062739;28;20097;-76
2022/10/29 02:45:33;;;;;;;;;;;13.30;99.90;;;;;;5062630;28;20111;-76
2022/10/29 02:47:59;;;;;;;;;;;13.30;99.90;;;;;;5062267;28;19913;-76
2022/10/29 02:50:24;;;;;;;;;;;13.20;99.90;;;;;;5062380;28;19915;-76
2022/10/29 02:52:50;;;;;;;;;;;13.10;99.90;;;;;;5062345;28;19912;-76
2022/10/29 02:55:16;;;;;;;;;;;13.10;99.90;;;;;;5062499;28;20255;-76
2022/10/29 02:57:44;;;;;;;;;;;13.10;99.90;;;;;;5062098;28;19923;-76
2022/10/29 03:00:11;;;;;;;;;;;13.10;99.90;;;;;;5062255;28;19913;-76
2022/10/29 03:02:37;;;;;;;;;;;13.10;99.90;;;;;;5061371;28;20062;-76
2022/10/29 03:05:02;;;;;;;;;;;13.10;99.90;;;;;;5062430;28;20199;-76
2022/10/29 03:07:28;;;;;;;;;;;13.10;99.90;;;;;;5061895;28;20115;-76
2022/10/29 03:09:54;;;;;;;;;;;13.10;99.90;;;;;;5062476;28;19955;-76
2022/10/29 03:12:19;;;;;;;;;;;13.10;99.90;;;;;;5062068;28;19912;-76
2022/10/29 03:14:45;;;;;;;;;;;13.10;99.90;;;;;;5062284;28;19916;-76
2022/10/29 03:17:11;;;;;;;;;;;13.00;99.90;;;;;;5060857;28;19909;-76
2022/10/29 03:19:37;;;;;;;;;;;13.00;99.90;;;;;;5062380;28;19916;-76
2022/10/29 03:22:02;;;;;;;;;;;12.90;99.90;;;;;;5062057;28;19909;-76
2022/10/29 03:24:28;;;;;;;;;;;12.90;99.90;;;;;;5062241;28;19957;-75
2022/10/29 03:26:53;;;;;;;;;;;12.80;99.90;;;;;;5061084;28;19909;-75
2022/10/29 03:29:19;;;;;;;;;;;12.90;99.90;;;;;;5062145;28;19984;-75
2022/10/29 03:31:45;;;;;;;;;;;12.90;99.90;;;;;;5062134;28;19913;-76
2022/10/29 03:34:10;;;;;;;;;;;12.90;99.90;;;;;;5062187;28;19967;-76
2022/10/29 03:36:36;;;;;;;;;;;12.90;99.90;;;;;;5061795;28;19939;-75
2022/10/29 03:39:02;;;;;;;;;;;13.00;99.90;;;;;;5044234;28;19920;-76
2022/10/29 03:41:27;;;;;;;;;;;13.00;99.90;;;;;;5062139;28;19909;-76
2022/10/29 03:43:53;;;;;;;;;;;12.90;99.90;;;;;;5062113;28;20200;-76
2022/10/29 03:46:18;;;;;;;;;;;12.90;99.90;;;;;;5060690;28;20106;-76
2022/10/29 03:48:44;;;;;;;;;;;12.90;99.90;;;;;;5062009;28;19916;-76
2022/10/29 03:51:10;;;;;;;;;;;12.90;99.90;;;;;;5043830;28;19950;-76
2022/10/29 03:53:36;;;;;;;;;;;12.80;99.90;;;;;;5061920;28;19959;-76
2022/10/29 03:56:01;;;;;;;;;;;12.80;99.90;;;;;;5060600;28;19916;-76
2022/10/29 03:58:27;;;;;;;;;;;12.80;99.90;;;;;;5061663;28;20151;-76
2022/10/29 04:00:57;;;;;;;;;;;12.80;99.90;;;;;;5061946;28;19935;-76
2022/10/29 04:03:23;;;;;;;;;;;12.80;99.90;;;;;;5060293;28;19908;-76
2022/10/29 04:05:49;;;;;;;;;;;12.70;99.90;;;;;;5061606;28;20251;-76
2022/10/29 04:08:15;;;;;;;;;;;12.70;99.90;;;;;;5061494;28;19909;-76
2022/10/29 04:10:44;;;;;;;;;;;12.70;99.90;;;;;;5061809;28;20317;-76
2022/10/29 04:13:10;;;;;;;;;;;12.70;99.90;;;;;;5063120;28;19920;-76
2022/10/29 04:15:35;;;;;;;;;;;12.70;99.90;;;;;;5065468;28;19909;-76
2022/10/29 04:18:01;;;;;;;;;;;12.70;99.90;;;;;;5065067;28;19975;-76
2022/10/29 04:20:27;;;;;;;;;;;12.70;99.90;;;;;;5065292;28;19917;-75
2022/10/29 04:22:52;;;;;;;;;;;12.70;99.90;;;;;;5065136;28;19909;-75
2022/10/29 04:25:18;;;;;;;;;;;12.70;99.90;;;;;;5065293;28;20134;-76
2022/10/29 04:27:43;;;;;;;;;;;12.70;99.90;;;;;;5064920;28;19931;-76
2022/10/29 04:30:09;;;;;;;;;;;12.70;99.90;;;;;;5065183;28;19908;-76
2022/10/29 04:32:35;;;;;;;;;;;12.60;99.90;;;;;;5065107;28;19958;-75
2022/10/29 04:35:01;;;;;;;;;;;12.60;99.90;;;;;;5064993;28;19909;-76
2022/10/29 04:37:29;;;;;;;;;;;12.50;99.90;;;;;;5064445;28;19927;-76
2022/10/29 04:39:55;;;;;;;;;;;12.50;99.90;;;;;;5065092;28;20203;-76
2022/10/29 04:42:20;;;;;;;;;;;12.50;99.90;;;;;;5064913;28;19924;-76
2022/10/29 04:44:46;;;;;;;;;;;12.50;99.90;;;;;;5063843;28;19954;-76
2022/10/29 04:47:12;;;;;;;;;;;12.40;99.90;;;;;;5063553;28;19924;-75
2022/10/29 04:49:37;;;;;;;;;;;12.40;99.90;;;;;;5063790;28;19916;-76
2022/10/29 04:52:03;;;;;;;;;;;12.40;99.90;;;;;;5064588;28;20119;-76
2022/10/29 04:54:29;;;;;;;;;;;12.30;99.90;;;;;;5063732;28;19947;-75
2022/10/29 04:56:54;;;;;;;;;;;12.30;99.90;;;;;;5064445;28;20271;-75
2022/10/29 04:59:20;;;;;;;;;;;12.30;99.90;;;;;;5064627;28;19916;-76
2022/10/29 05:01:46;;;;;;;;;;;12.20;99.90;;;;;;5064682;28;19947;-75
2022/10/29 05:04:11;;;;;;;;;;;12.30;99.90;;;;;;5062686;28;19924;-76
2022/10/29 05:06:37;;;;;;;;;;;12.30;99.90;;;;;;5064103;28;19916;-76
2022/10/29 05:09:03;;;;;;;;;;;12.30;99.90;;;;;;5064428;28;19909;-76
2022/10/29 05:11:29;;;;;;;;;;;12.30;99.90;;;;;;5063213;28;20278;-76
2022/10/29 05:13:54;;;;;;;;;;;12.30;99.90;;;;;;5064414;28;19909;-76
2022/10/29 05:16:20;;;;;;;;;;;12.30;99.90;;;;;;5062966;28;19908;-75
2022/10/29 05:18:46;;;;;;;;;;;12.30;99.90;;;;;;5064228;28;20107;-76
2022/10/29 05:21:12;;;;;;;;;;;12.30;99.90;;;;;;5063008;28;19924;-76
2022/10/29 05:23:37;;;;;;;;;;;12.30;99.90;;;;;;5063085;28;19909;-76
2022/10/29 05:26:03;;;;;;;;;;;12.20;99.90;;;;;;5063983;28;19915;-76
2022/10/29 05:28:29;;;;;;;;;;;12.20;99.90;;;;;;5064137;28;19908;-76
2022/10/29 05:30:54;;;;;;;;;;;12.20;99.90;;;;;;5064153;28;19972;-76
2022/10/29 05:33:22;;;;;;;;;;;12.20;99.90;;;;;;5064228;28;19920;-76
2022/10/29 05:35:48;;;;;;;;;;;12.10;99.90;;;;;;5043419;28;19909;-76
2022/10/29 05:38:14;;;;;;;;;;;12.10;99.90;;;;;;5043402;28;19913;-76
2022/10/29 05:40:41;;;;;;;;;;;12.10;99.90;;;;;;5042683;28;19909;-76
2022/10/29 05:43:07;;;;;;;;;;;12.10;99.90;;;;;;5026376;28;19924;-76
2022/10/29 05:45:32;;;;;;;;;;;12.20;99.90;;;;;;5047613;28;19922;-76
2022/10/29 05:47:59;;;;;;;;;;;12.20;99.90;;;;;;5061359;28;20230;-75
2022/10/29 05:50:25;;;;;;;;;;;12.20;99.90;;;;;;5038330;28;19955;-75
2022/10/29 05:52:58;;;;;;;;;;;12.20;99.90;;;;;;5054830;28;19916;-74
2022/10/29 05:55:24;;;;;;;;;;;12.20;99.90;;;;;;5057137;28;20231;-75
2022/10/29 05:57:52;;;;;;;;;;;12.20;99.90;;;;;;5063169;28;19980;-74
2022/10/29 06:00:18;;;;;;;;;;;12.20;99.90;;;;;;5078902;28;19950;-75
2022/10/29 06:02:43;;;;;;;;;;;12.20;99.90;;;;;;5063447;28;19908;-75
2022/10/29 06:05:09;;;;;;;;;;;12.20;99.90;;;;;;5075765;28;20103;-75
2022/10/29 06:07:35;;;;;;;;;;;12.20;99.90;;;;;;5058538;28;19920;-75
2022/10/29 06:10:00;;;;;;;;;;;12.10;99.90;;;;;;5058612;28;19917;-75
2022/10/29 06:12:26;;;;;;;;;;;12.10;99.90;;;;;;5052927;28;19913;-75
2022/10/29 06:14:51;;;;;;;;;;;12.10;99.90;;;;;;5049517;28;19967;-75
2022/10/29 06:17:17;;;;;;;;;;;12.10;99.90;;;;;;5055555;28;19912;-75
2022/10/29 06:19:43;;;;;;;;;;;12.10;99.90;;;;;;5052558;28;19983;-75
2022/10/29 06:22:08;;;;;;;;;;;12.10;99.90;;;;;;5053171;28;19909;-75
2022/10/29 06:24:34;;;;;;;;;;;12.10;99.90;;;;;;5058730;28;19919;-75
2022/10/29 06:27:00;;;;;;;;;;;12.10;99.90;;;;;;5062567;28;20085;-75
2022/10/29 06:29:25;;;;;;;;;;;12.20;99.90;;;;;;5056765;28;19909;-75
2022/10/29 06:31:51;;;;;;;;;;;12.20;99.90;;;;;;5055574;28;19947;-75
2022/10/29 06:34:16;;;;;;;;;;;12.20;99.90;;;;;;5058358;28;19916;-75
2022/10/29 06:36:44;;;;;;;;;;;12.20;99.90;;;;;;5054197;28;20162;-75
2022/10/29 06:39:10;;;;;;;;;;;12.20;99.90;;;;;;5049532;28;20019;-75
2022/10/29 06:41:36;;;;;;;;;;;12.30;99.90;;;;;;5057744;28;19998;-75
2022/10/29 06:44:01;;;;;;;;;;;12.30;99.90;;;;;;5060502;28;19992;-75
2022/10/29 06:46:27;;;;;;;;;;;12.30;99.90;;;;;;5056585;28;19916;-74
2022/10/29 06:48:53;;;;;;;;;;;12.40;99.90;;;;;;5054014;28;19949;-76
2022/10/29 06:51:18;;;;;;;;;;;12.40;99.90;;;;;;5051628;28;20187;-76
2022/10/29 06:53:44;;;;;;;;;;;12.40;99.90;;;;;;5056682;28;19962;-76
2022/10/29 06:56:10;;;;;;;;;;;12.40;99.90;;;;;;5049351;28;19916;-76
2022/10/29 06:58:35;;;;;;;;;;;12.50;99.90;;;;;;5058777;28;19909;-76
2022/10/29 07:01:01;;;;;;;;;;;12.60;99.90;;;;;;5062544;28;19909;-76
2022/10/29 07:03:26;;;;;;;;;;;12.60;99.90;;;;;;5078009;28;19917;-76
2022/10/29 07:05:56;;;;;;;;;;;12.70;99.90;;;;;;5061731;28;19917;-75
2022/10/29 07:08:22;;;;;;;;;;;12.70;99.90;;;;;;5060914;28;19956;-75
2022/10/29 07:10:50;;;;;;;;;;;12.80;99.90;;;;;;5062430;28;19916;-76
2022/10/29 07:13:16;;;;;;;;;;;12.80;99.90;;;;;;5061327;28;20128;-76
2022/10/29 07:15:41;;;;;;;;;;;12.90;99.90;;;;;;5062291;28;19917;-76
2022/10/29 07:18:07;;;;;;;;;;;12.90;99.90;;;;;;5060927;28;20017;-76
2022/10/29 07:20:34;;;;;;;;;;;13.00;99.90;;;;;;5062242;28;19908;-76
2022/10/29 07:23:00;;;;;;;;;;;13.00;99.90;;;;;;5062037;28;19908;-75
2022/10/29 07:25:26;;;;;;;;;;;13.10;99.90;;;;;;5044466;28;20219;-75
2022/10/29 07:27:52;;;;;;;;;;;13.10;99.90;;;;;;5060798;28;19917;-74
2022/10/29 07:30:18;;;;;;;;;;;13.20;99.90;;;;;;5044569;28;19932;-76
2022/10/29 07:32:44;;;;;;;;;;;13.30;99.90;;;;;;5062078;28;19919;-75
2022/10/29 07:35:09;;;;;;;;;;;13.30;99.90;;;;;;5062105;28;19947;-76
2022/10/29 07:37:35;;;;;;;;;;;13.40;99.90;;;;;;5061414;28;19913;-75
2022/10/29 07:40:00;;;;;;;;;;;13.50;99.90;;;;;;5062120;28;19909;-75
2022/10/29 07:42:26;;;;;;;;;;;13.50;99.90;;;;;;5062124;28;19916;-75
2022/10/29 07:44:52;;;;;;;;;;;13.60;99.90;;;;;;5062072;28;19917;-76
2022/10/29 07:47:17;;;;;;;;;;;13.60;99.90;;;;;;5062950;28;19908;-75
2022/10/29 07:49:43;;;;;;;;;;;13.60;99.90;;;;;;5065913;28;19996;-75
2022/10/29 07:52:09;;;;;;;;;;;13.70;99.90;;;;;;5065682;28;19913;-75
2022/10/29 07:54:34;;;;;;;;;;;13.70;99.90;;;;;;5064706;28;20200;-75
2022/10/29 07:57:00;;;;;;;;;;;13.80;99.90;;;;;;5065516;28;19916;-76
2022/10/29 07:59:26;;;;;;;;;;;13.80;99.90;;;;;;5065665;28;19909;-75
2022/10/29 08:01:51;;;;;;;;;;;13.90;99.90;;;;;;5065717;28;19970;-75
2022/10/29 08:04:17;;;;;;;;;;;14.00;99.90;;;;;;5065515;28;19916;-75
2022/10/29 08:06:43;;;;;;;;;;;14.00;99.90;;;;;;5065182;28;19966;-76
2022/10/29 08:09:10;;;;;;;;;;;14.10;99.90;;;;;;5065493;28;19909;-76
2022/10/29 08:11:35;;;;;;;;;;;14.10;99.90;;;;;;5064499;28;19943;-76
2022/10/29 08:14:01;;;;;;;;;;;14.20;99.90;;;;;;5065548;28;19913;-76
2022/10/29 08:16:27;;;;;;;;;;;14.20;99.90;;;;;;5065095;28;19923;-76
2022/10/29 08:18:52;;;;;;;;;;;14.30;99.90;;;;;;5065236;28;20223;-76
2022/10/29 08:21:18;;;;;;;;;;;14.30;99.90;;;;;;5064258;28;20219;-75
2022/10/29 08:23:44;;;;;;;;;;;14.40;99.90;;;;;;5065359;28;19936;-75
2022/10/29 08:26:10;;;;;;;;;;;14.50;99.90;;;;;;5065094;28;20194;-76
2022/10/29 08:28:36;;;;;;;;;;;14.50;99.90;;;;;;5064659;28;19916;-79
2022/10/29 08:31:02;;;;;;;;;;;14.50;99.90;;;;;;5065330;28;20215;-76
2022/10/29 08:33:27;;;;;;;;;;;14.60;99.90;;;;;;5065051;28;20097;-76
2022/10/29 08:35:53;;;;;;;;;;;14.60;99.90;;;;;;5065129;28;19908;-75
2022/10/29 08:38:22;;;;;;;;;;;14.70;99.90;;;;;;5063438;28;19923;-75
2022/10/29 08:41:20;;;;;;;;;;;14.80;99.90;;;;;;5063991;28;19912;-75
2022/10/29 08:43:58;;;;;;;;;;;14.80;99.90;;;;;;5080598;28;19912;-75
2022/10/29 08:46:39;;;;;;;;;;;14.90;99.90;;;;;;5063605;28;19909;-75
2022/10/29 08:49:09;;;;;;;;;;;15.00;99.90;;;;;;5064108;28;19936;-76
2022/10/29 08:51:39;;;;;;;;;;;15.10;99.90;;;;;;5063654;28;20218;-76
2022/10/29 08:54:05;;;;;;;;;;;15.20;99.90;;;;;;5063806;28;19909;-75
2022/10/29 08:56:34;;;;;;;;;;;15.30;99.90;;;;;;5063690;28;19951;-76
2022/10/29 08:59:04;;;;;;;;;;;15.40;99.90;;;;;;5064585;28;20471;-75
2022/10/29 09:01:30;;;;;;;;;;;15.50;99.90;;;;;;5057973;28;19912;-76
2022/10/29 09:03:55;;;;;;;;;;;15.50;99.90;;;;;;5049910;28;20199;-76
2022/10/29 09:06:29;;;;;;;;;;;15.60;99.90;;;;;;5055742;28;19963;-75
2022/10/29 09:09:12;;;;;;;;;;;15.60;99.90;;;;;;5061893;28;19963;-75
2022/10/29 09:11:49;;;;;;;;;;;15.60;99.90;;;;;;5038573;28;19920;-75
2022/10/29 09:14:27;;;;;;;;;;;15.60;99.90;;;;;;5043481;28;19916;-75
2022/10/29 09:17:12;;;;;;;;;;;15.70;99.90;;;;;;5054439;28;20306;-75
2022/10/29 09:19:59;;;;;;;;;;;15.70;99.90;;;;;;5051114;28;19912;-76
2022/10/29 09:22:36;;;;;;;;;;;15.70;99.90;;;;;;5076846;28;19919;-80
2022/10/29 09:25:16;;;;;;;;;;;15.80;99.90;;;;;;5054986;28;19920;-78
2022/10/29 09:28:04;;;;;;;;;;;15.80;99.90;;;;;;5043146;28;19943;-79
2022/10/29 09:30:30;;;;;;;;;;;15.90;99.90;;;;;;5060763;28;19980;-78
2022/10/29 09:33:01;;;;;;;;;;;15.90;99.90;;;;;;5010033;28;19925;-78
2022/10/29 09:35:39;;;;;;;;;;;16.00;99.90;;;;;;5061696;28;19920;-79
2022/10/29 09:38:16;;;;;;;;;;;16.10;99.90;;;;;;5061898;28;20112;-78
2022/10/29 09:40:42;;;;;;;;;;;16.20;99.90;;;;;;5045235;28;19921;-78
2022/10/29 09:43:38;;;;;;;;;;;16.40;99.90;;;;;;5042880;28;20223;-78
2022/10/29 09:46:29;;;;;;;;;;;16.40;99.90;;;;;;5048462;28;20208;-79
2022/10/29 09:49:09;;;;;;;;;;;16.50;99.90;;;;;;5050724;28;19909;-79
2022/10/29 09:51:53;;;;;;;;;;;16.60;99.90;;;;;;5050849;28;19943;-78
2022/10/29 09:54:19;;;;;;;;;;;16.60;99.90;;;;;;5049265;28;20108;-80
2022/10/29 09:56:45;;;;;;;;;;;16.70;99.90;;;;;;5035561;28;19909;-79
2022/10/29 09:59:20;;;;;;;;;;;16.80;99.90;;;;;;5055777;28;19914;-79
2022/10/29 10:01:46;;;;;;;;;;;16.90;99.90;;;;;;5059453;28;19913;-79
2022/10/29 10:04:27;;;;;;;;;;;17.20;99.90;;;;;;5045485;28;19951;-79
2022/10/29 10:07:09;;;;;;;;;;;17.50;99.90;;;;;;5076223;28;19913;-78
2022/10/29 10:09:58;;;;;;;;;;;17.90;99.90;;;;;;5047277;28;20019;-78
2022/10/29 10:12:36;;;;;;;;;;;18.30;99.90;;;;;;5041865;28;20120;-80
2022/10/29 10:15:16;;;;;;;;;;;18.70;99.90;;;;;;5044064;28;19992;-80
2022/10/29 10:18:01;;;;;;;;;;;19.00;99.90;;;;;;5055625;28;19920;-80
2022/10/29 10:20:36;;;;;;;;;;;19.30;99.90;;;;;;5073841;28;19927;-80
2022/10/29 10:23:16;;;;;;;;;;;19.60;99.90;;;;;;5053848;28;19927;-84
2022/10/29 10:25:41;;;;;;;;;;;20.00;99.90;;;;;;5057158;28;19913;-83
2022/10/29 10:28:28;;;;;;;;;;;20.40;99.90;;;;;;5050808;28;19927;-82
2022/10/29 10:31:17;;;;;;;;;;;20.70;99.90;;;;;;5048240;28;19952;-77
2022/10/29 10:33:48;;;;;;;;;;;20.90;99.90;;;;;;5057963;28;19925;-75
2022/10/29 10:36:13;;;;;;;;;;;21.10;99.90;;;;;;5057611;28;19909;-75
2022/10/29 10:38:40;;;;;;;;;;;21.30;99.90;;;;;;5042746;28;19927;-75
2022/10/29 10:41:07;;;;;;;;;;;21.40;99.90;;;;;;5032507;28;19913;-75
2022/10/29 10:43:33;;;;;;;;;;;21.60;99.90;;;;;;5051999;28;19948;-75
2022/10/29 10:45:59;;;;;;;;;;;21.70;99.90;;;;;;5038224;28;19921;-75
2022/10/29 10:48:26;;;;;;;;;;;21.80;99.90;;;;;;5054568;28;19909;-75
2022/10/29 10:51:08;;;;;;;;;;;22.10;99.90;;;;;;5051066;28;19921;-75
2022/10/29 10:53:34;;;;;;;;;;;22.50;99.90;;;;;;5044259;28;19917;-75
2022/10/29 10:56:00;;;;;;;;;;;22.90;99.90;;;;;;5028905;28;19920;-75
2022/10/29 10:58:30;;;;;;;;;;;23.20;99.90;;;;;;5050893;28;20204;-76
2022/10/29 11:01:02;;;;;;;;;;;23.40;99.90;;;;;;5053474;28;19921;-75
2022/10/29 11:03:45;;;;;;;;;;;23.40;99.90;;;;;;5013606;28;19980;-75
2022/10/29 11:06:28;;;;;;;;;;;23.20;99.90;;;;;;5036689;28;19966;-76
2022/10/29 11:09:15;;;;;;;;;;;23.00;99.90;;;;;;5051862;28;19912;-75
2022/10/29 11:12:00;;;;;;;;;;;22.90;99.90;;;;;;5054639;28;19916;-75
2022/10/29 11:14:35;;;;;;;;;;;22.80;99.90;;;;;;5052117;28;19920;-75
2022/10/29 11:17:01;;;;;;;;;;;22.90;99.90;;;;;;5035829;28;19940;-75
2022/10/29 11:19:38;;;;;;;;;;;22.90;99.90;;;;;;5033470;28;19917;-80
2022/10/29 11:22:22;;;;;;;;;;;22.80;99.90;;;;;;5038927;28;19920;-81
2022/10/29 11:25:02;;;;;;;;;;;22.80;99.90;;;;;;5062816;28;19920;-80
2022/10/29 11:27:52;;;;;;;;;;;22.70;99.90;;;;;;5058811;28;20216;-80
2022/10/29 11:30:18;;;;;;;;;;;22.70;99.90;;;;;;5044094;28;19959;-80
2022/10/29 11:33:00;;;;;;;;;;;22.60;99.90;;;;;;5052322;28;19916;-80
2022/10/29 11:35:51;;;;;;;;;;;22.50;99.90;;;;;;5057208;28;19959;-80
2022/10/29 11:38:24;;;;;;;;;;;22.30;99.90;;;;;;5057151;28;20027;-80
2022/10/29 11:41:10;;;;;;;;;;;22.20;99.90;;;;;;5053727;28;19920;-80
2022/10/29 11:43:36;;;;;;;;;;;22.10;99.90;;;;;;5052931;28;19919;-80
2022/10/29 11:46:23;;;;;;;;;;;22.00;99.90;;;;;;5057279;28;19956;-80
2022/10/29 11:49:07;;;;;;;;;;;22.00;99.90;;;;;;5063486;28;19921;-80
2022/10/29 11:51:42;;;;;;;;;;;21.90;99.90;;;;;;5047769;28;19928;-81
2022/10/29 11:54:10;;;;;;;;;;;22.00;99.90;;;;;;5057673;28;19920;-81
2022/10/29 11:56:48;;;;;;;;;;;22.00;99.90;;;;;;5059283;28;19923;-81
2022/10/29 11:59:23;;;;;;;;;;;22.00;99.90;;;;;;5050729;28;19920;-81
2022/10/29 12:01:52;;;;;;;;;;;22.20;99.90;;;;;;5048065;28;19913;-79
2022/10/29 12:04:26;;;;;;;;;;;22.30;99.90;;;;;;5041299;28;19944;-79
2022/10/29 12:06:58;;;;;;;;;;;22.30;99.90;;;;;;5047226;28;19990;-78
2022/10/29 12:09:35;;;;;;;;;;;22.30;99.90;;;;;;5040775;28;20216;-78
2022/10/29 12:12:29;;;;;;;;;;;22.40;99.90;;;;;;5058085;28;19924;-78
2022/10/29 12:15:01;;;;;;;;;;;22.40;99.90;;;;;;5061616;28;20262;-78
2022/10/29 12:17:27;;;;;;;;;;;22.60;99.90;;;;;;5039364;28;19924;-78
2022/10/29 12:19:52;;;;;;;;;;;22.90;99.90;;;;;;5055905;28;19909;-78
2022/10/29 12:22:34;;;;;;;;;;;23.20;99.90;;;;;;5057255;28;20108;-78
2022/10/29 12:25:02;;;;;;;;;;;23.60;99.90;;;;;;5061352;28;19909;-78
2022/10/29 12:27:46;;;;;;;;;;;23.80;99.90;;;;;;5066280;28;19912;-78
2022/10/29 12:30:14;;;;;;;;;;;24.00;99.90;;;;;;5047230;28;20171;-79
2022/10/29 12:32:45;;;;;;;;;;;24.20;99.90;;;;;;5061479;28;19913;-78
2022/10/29 12:35:39;;;;;;;;;;;24.10;99.90;;;;;;5064304;28;19913;-78
2022/10/29 12:38:43;;;;;;;;;;;24.00;99.90;;;;;;5065108;28;19913;-78
2022/10/29 12:41:23;;;;;;;;;;;23.80;99.90;;;;;;5048620;28;20277;-78
2022/10/29 12:43:48;;;;;;;;;;;23.60;99.90;;;;;;5066017;28;19931;-79
2022/10/29 12:46:27;;;;;;;;;;;23.50;99.90;;;;;;5065063;28;20211;-78
2022/10/29 12:49:12;;;;;;;;;;;23.50;99.90;;;;;;5064959;28;19909;-78
2022/10/29 12:51:43;;;;;;;;;;;23.60;99.90;;;;;;5066189;28;19939;-78
2022/10/29 12:54:32;;;;;;;;;;;23.90;99.90;;;;;;5060199;28;19959;-79
2022/10/29 12:57:21;;;;;;;;;;;24.10;99.90;;;;;;5060135;28;20228;-78
2022/10/29 12:59:47;;;;;;;;;;;24.40;99.90;;;;;;5051942;28;19928;-79
2022/10/29 13:02:43;;;;;;;;;;;24.70;99.90;;;;;;5055020;28;19909;-79
2022/10/29 13:05:09;;;;;;;;;;;24.90;99.90;;;;;;5045426;28;19916;-79
2022/10/29 13:07:46;;;;;;;;;;;25.30;99.90;;;;;;5057851;28;19913;-78
2022/10/29 13:10:25;;;;;;;;;;;25.60;99.90;;;;;;5056013;28;19920;-78
2022/10/29 13:12:57;;;;;;;;;;;26.10;99.90;;;;;;5056448;28;19931;-79
2022/10/29 13:15:41;;;;;;;;;;;26.70;99.90;;;;;;5048316;28;19936;-79
2022/10/29 13:18:18;;;;;;;;;;;27.40;99.90;;;;;;5054463;28;19920;-79
2022/10/29 13:20:49;;;;;;;;;;;28.00;99.90;;;;;;5055774;28;19920;-79
2022/10/29 13:23:20;;;;;;;;;;;28.00;99.90;;;;;;5054037;28;19988;-79
2022/10/29 13:25:50;;;;;;;;;;;27.80;99.90;;;;;;5054751;28;19967;-80
2022/10/29 13:28:15;;;;;;;;;;;27.50;99.90;;;;;;5053688;28;19936;-80
2022/10/29 13:30:42;;;;;;;;;;;27.30;99.90;;;;;;5056009;28;19949;-78
2022/10/29 13:33:26;;;;;;;;;;;27.00;99.90;;;;;;5042908;28;19959;-78
2022/10/29 13:35:53;;;;;;;;;;;26.90;99.90;;;;;;5056161;28;19976;-77
2022/10/29 13:38:38;;;;;;;;;;;26.90;99.90;;;;;;5056079;28;19913;-79
2022/10/29 13:41:03;;;;;;;;;;;26.70;99.90;;;;;;5049796;28;19951;-79
2022/10/29 13:43:30;;;;;;;;;;;26.50;99.90;;;;;;5059203;28;19925;-78
2022/10/29 13:46:12;;;;;;;;;;;26.30;99.90;;;;;;5045428;28;20195;-80
2022/10/29 13:48:38;;;;;;;;;;;26.20;99.90;;;;;;5072694;28;19958;-78
2022/10/29 13:51:08;;;;;;;;;;;26.00;99.90;;;;;;5055610;28;19925;-79
2022/10/29 13:53:56;;;;;;;;;;;25.80;99.90;;;;;;5033040;28;19940;-78
2022/10/29 13:56:37;;;;;;;;;;;25.70;99.90;;;;;;5050652;28;19991;-79
2022/10/29 13:59:04;;;;;;;;;;;25.50;99.90;;;;;;5056913;28;20204;-78
2022/10/29 14:01:32;;;;;;;;;;;25.30;99.90;;;;;;5040395;28;19909;-77
2022/10/29 14:04:02;;;;;;;;;;;25.10;99.90;;;;;;5065469;28;19959;-77
2022/10/29 14:06:36;;;;;;;;;;;24.90;99.90;;;;;;5054939;28;20125;-78
2022/10/29 14:09:19;;;;;;;;;;;24.70;99.90;;;;;;5061811;28;19923;-76
2022/10/29 14:12:00;;;;;;;;;;;24.50;99.90;;;;;;5063080;28;19908;-82
2022/10/29 14:14:28;;;;;;;;;;;24.30;99.90;;;;;;5080460;28;19943;-82
2022/10/29 14:17:13;;;;;;;;;;;24.20;99.90;;;;;;5061733;28;19913;-82
2022/10/29 14:19:46;;;;;;;;;;;24.00;99.90;;;;;;5056263;28;19913;-82
2022/10/29 14:22:39;;;;;;;;;;;23.80;99.90;;;;;;5056922;28;19924;-81
2022/10/29 14:25:23;;;;;;;;;;;23.70;99.90;;;;;;5050763;28;19913;-79
2022/10/29 14:28:21;;;;;;;;;;;23.70;99.90;;;;;;5053436;28;19928;-81
2022/10/29 14:30:47;;;;;;;;;;;23.60;99.90;;;;;;5055377;28;19913;-79
2022/10/29 14:33:23;;;;;;;;;;;23.50;99.90;;;;;;5051764;28;19924;-76
2022/10/29 14:35:49;;;;;;;;;;;23.40;99.90;;;;;;5055538;28;19920;-79
2022/10/29 14:38:15;;;;;;;;;;;23.40;99.90;;;;;;5058545;28;19921;-81